Time;durP1;ratioP1;P1;durP2;ratioP2;P2;SDS_P1;SDS_P2;PMS_P1;PMS_P2;Temp;Humidity;BMP_temperature;BMP_pressure;BME280_temperature;BME280_humidity;BME280_pressure;Samples;Min_cycle;Max_cycle;Signal;HPM_P1;HPM_P2
2022/08/03 00:02:52;;;;;;;7.85;4.03;;;;;;;14.84;70.40;100424.09;2118497;82;22195;-68
2022/08/03 00:05:53;;;;;;;7.53;4.30;;;;;;;14.82;70.72;100427.48;2121811;82;21056;-68
2022/08/03 00:08:55;;;;;;;6.95;4.17;;;;;;;14.77;71.05;100427.52;2118604;82;21461;-69
2022/08/03 00:11:56;;;;;;;7.30;4.37;;;;;;;14.70;71.32;100428.47;2121355;82;21052;-70
2022/08/03 00:14:57;;;;;;;7.95;4.70;;;;;;;14.70;71.39;100431.97;2119798;82;21078;-69
2022/08/03 00:17:58;;;;;;;7.08;4.15;;;;;;;14.74;71.39;100435.08;2120252;82;20992;-68
2022/08/03 00:20:59;;;;;;;8.88;4.80;;;;;;;14.74;71.29;100431.08;2104446;82;20985;-69
2022/08/03 00:24:00;;;;;;;7.97;5.65;;;;;;;14.67;72.12;100430.16;2116080;83;21072;-70
2022/08/03 00:27:01;;;;;;;7.47;4.75;;;;;;;14.61;72.42;100426.89;2129228;83;21055;-69
2022/08/03 00:30:04;;;;;;;7.58;4.05;;;;;;;14.61;72.24;100432.23;2130044;82;21026;-68
2022/08/03 00:33:09;;;;;;;5.40;3.65;;;;;;;14.59;72.20;100429.77;2128153;82;21040;-69
2022/08/03 00:36:10;;;;;;;5.25;4.10;;;;;;;14.54;72.01;100432.16;2129943;83;20962;-69
2022/08/03 00:39:13;;;;;;;5.97;3.98;;;;;;;14.56;72.20;100431.48;2129466;82;21010;-68
2022/08/03 00:42:15;;;;;;;7.42;5.33;;;;;;;14.55;72.08;100429.28;2130177;82;21021;-68
2022/08/03 00:45:19;;;;;;;6.55;5.10;;;;;;;14.51;72.65;100432.50;2129066;82;21010;-68
2022/08/03 00:48:20;;;;;;;9.60;4.22;;;;;;;14.51;72.76;100427.16;2128699;83;21068;-68
2022/08/03 00:51:22;;;;;;;7.20;4.00;;;;;;;14.48;72.60;100424.86;2129800;82;20975;-68
2022/08/03 00:54:24;;;;;;;8.03;5.53;;;;;;;14.44;72.48;100423.55;2129652;83;21019;-68
2022/08/03 00:57:28;;;;;;;8.03;5.50;;;;;;;14.47;72.94;100428.52;2129314;82;21005;-69
2022/08/03 01:00:29;;;;;;;9.45;5.15;;;;;;;14.46;73.05;100428.22;2129502;83;21033;-68
2022/08/03 01:03:31;;;;;;;7.50;5.35;;;;;;;14.38;73.02;100428.30;2130583;82;21583;-70
2022/08/03 01:06:40;;;;;;;8.50;4.37;;;;;;;14.34;72.98;100423.33;2128599;83;21434;-69
2022/08/03 01:09:53;;;;;;;9.30;3.83;;;;;;;14.33;72.96;100422.17;2128154;82;21054;-68
2022/08/03 01:13:29;;;;;;;9.15;3.87;;;;;;;14.27;72.61;100421.06;2130180;83;21041;-70
2022/08/03 01:16:37;;;;;;;8.20;4.10;;;;;;;14.24;72.76;100430.77;2129377;83;21072;-68
2022/08/03 01:20:05;;;;;;;5.30;4.10;;;;;;;14.22;72.77;100426.14;2120762;83;20990;-68
2022/08/03 01:23:14;;;;;;;8.03;4.28;;;;;;;14.16;72.65;100421.52;2126747;82;21026;-68
2022/08/03 01:27:01;;;;;;;9.93;3.67;;;;;;;14.12;72.85;100418.39;2120903;82;21068;-70
2022/08/03 01:30:08;;;;;;;8.10;4.42;;;;;;;14.12;72.79;100426.39;2089796;83;21110;-68
2022/08/03 01:33:23;;;;;;;9.08;4.65;;;;;;;14.11;72.86;100421.26;2102884;82;21049;-68
2022/08/03 01:36:33;;;;;;;9.33;3.83;;;;;;;14.12;72.95;100418.91;2116234;82;21532;-68
2022/08/03 01:39:39;;;;;;;8.85;4.90;;;;;;;14.07;72.75;100420.77;2118358;82;21088;-68
2022/08/03 01:42:43;;;;;;;7.90;4.35;;;;;;;14.08;73.24;100417.63;2116773;82;21630;-70
2022/08/03 01:45:46;;;;;;;6.15;3.95;;;;;;;14.04;72.93;100418.47;2120065;82;21042;-68
2022/08/03 01:48:48;;;;;;;5.87;4.20;;;;;;;13.99;72.81;100418.18;2099953;82;20953;-68
2022/08/03 01:51:51;;;;;;;5.62;4.20;;;;;;;13.95;72.90;100419.56;2117233;82;21010;-69
2022/08/03 01:54:54;;;;;;;7.12;4.58;;;;;;;13.89;72.85;100418.96;2118571;82;21819;-68
2022/08/03 01:57:58;;;;;;;7.78;5.55;;;;;;;13.87;72.84;100417.80;2115561;82;21132;-68
2022/08/03 02:01:01;;;;;;;8.20;5.20;;;;;;;13.90;73.51;100417.94;2120347;82;21492;-70
2022/08/03 02:04:05;;;;;;;6.10;5.35;;;;;;;13.89;73.56;100409.63;2118066;82;21445;-69
2022/08/03 02:07:08;;;;;;;5.95;4.60;;;;;;;13.87;73.53;100407.13;2125332;82;21550;-69
2022/08/03 02:10:13;;;;;;;7.60;4.62;;;;;;;13.83;73.64;100410.36;2118175;82;21095;-69
2022/08/03 02:13:18;;;;;;;7.05;3.95;;;;;;;13.79;73.39;100405.86;2121044;82;21013;-69
2022/08/03 02:16:21;;;;;;;10.00;5.58;;;;;;;13.76;73.19;100410.23;2118708;82;21104;-69
2022/08/03 02:19:24;;;;;;;11.12;6.08;;;;;;;13.71;73.50;100403.27;2121807;82;21083;-69
2022/08/03 02:22:27;;;;;;;12.70;5.10;;;;;;;13.63;74.16;100399.37;2117905;82;20989;-69
2022/08/03 02:25:31;;;;;;;11.12;4.17;;;;;;;13.61;74.21;100393.37;2101654;83;21033;-69
2022/08/03 02:28:36;;;;;;;5.85;4.95;;;;;;;13.61;73.70;100389.37;2076812;84;21046;-70
2022/08/03 02:31:40;;;;;;;7.60;4.80;;;;;;;13.59;74.29;100387.39;2070861;84;21012;-69
2022/08/03 02:34:48;;;;;;;5.80;4.15;;;;;;;13.56;73.92;100387.75;2072613;84;21655;-69
2022/08/03 02:37:57;;;;;;;4.70;3.37;;;;;;;13.52;73.83;100395.28;2070746;84;21548;-69
2022/08/03 02:41:00;;;;;;;9.38;3.95;;;;;;;13.48;73.76;100391.81;2072229;84;21014;-69
2022/08/03 02:44:06;;;;;;;6.03;3.75;;;;;;;13.48;73.77;100395.81;2069653;84;21073;-70
2022/08/03 02:47:11;;;;;;;7.67;3.70;;;;;;;13.49;74.03;100395.65;2075509;84;21037;-69
2022/08/03 02:50:16;;;;;;;5.20;4.20;;;;;;;13.52;73.99;100391.80;2071439;84;21114;-68
2022/08/03 02:53:19;;;;;;;5.20;3.50;;;;;;;13.58;74.38;100403.07;2070601;84;20997;-68
2022/08/03 02:56:23;;;;;;;9.10;3.55;;;;;;;13.57;74.27;100400.06;2074518;84;21054;-68
2022/08/03 02:59:25;;;;;;;6.58;3.67;;;;;;;13.60;74.31;100403.70;2073473;84;21121;-69
2022/08/03 03:02:28;;;;;;;5.97;3.70;;;;;;;13.62;74.46;100405.17;2073424;84;21033;-68
2022/08/03 03:05:30;;;;;;;10.23;5.62;;;;;;;13.67;74.52;100409.48;2075301;84;21547;-69
2022/08/03 03:08:32;;;;;;;9.58;5.47;;;;;;;13.69;75.11;100414.64;2075425;84;21539;-69
2022/08/03 03:11:37;;;;;;;6.33;5.03;;;;;;;13.72;75.45;100413.45;2073597;84;21087;-68
2022/08/03 03:14:39;;;;;;;8.25;4.83;;;;;;;13.75;75.66;100414.42;2069187;83;21092;-68
2022/08/03 03:17:42;;;;;;;11.73;6.62;;;;;;;13.80;75.67;100412.88;2073699;84;21053;-68
2022/08/03 03:20:45;;;;;;;7.70;5.87;;;;;;;13.86;76.29;100410.81;2073662;84;21049;-67
2022/08/03 03:23:46;;;;;;;10.20;6.80;;;;;;;13.94;76.55;100407.73;2069259;84;21454;-69
2022/08/03 03:26:48;;;;;;;13.70;7.22;;;;;;;14.01;76.70;100402.00;2067478;84;21484;-68
2022/08/03 03:29:50;;;;;;;9.38;6.90;;;;;;;14.10;76.94;100399.06;2067651;84;20998;-68
2022/08/03 03:32:51;;;;;;;8.78;6.33;;;;;;;14.17;77.00;100404.52;2014410;87;21061;-69
2022/08/03 03:35:53;;;;;;;10.13;6.95;;;;;;;14.25;77.10;100407.09;2071848;84;21026;-69
2022/08/03 03:38:54;;;;;;;8.50;5.95;;;;;;;14.34;77.06;100407.83;2067693;84;21002;-68
2022/08/03 03:41:56;;;;;;;6.28;5.67;;;;;;;14.45;77.12;100409.22;2067463;84;21026;-70
2022/08/03 03:44:58;;;;;;;8.58;6.58;;;;;;;14.50;77.03;100409.46;2070369;84;21022;-68
2022/08/03 03:48:01;;;;;;;12.65;5.92;;;;;;;14.56;77.17;100411.45;2067765;84;21198;-68
2022/08/03 03:51:02;;;;;;;8.25;6.50;;;;;;;14.65;77.11;100411.66;2068484;84;21073;-68
2022/08/03 03:54:05;;;;;;;6.85;5.30;;;;;;;14.76;77.23;100419.20;2065395;84;21380;-68
2022/08/03 03:57:09;;;;;;;7.20;5.60;;;;;;;14.94;77.08;100419.30;2065705;84;21066;-68
2022/08/03 04:00:14;;;;;;;8.90;7.30;;;;;;;15.14;77.20;100420.34;2035641;86;21057;-68
2022/08/03 04:03:15;;;;;;;9.03;6.72;;;;;;;15.35;77.16;100420.88;2032470;86;21048;-68
2022/08/03 04:13:01;;;;;;;9.05;6.47;;;;;;;16.08;77.04;100430.08;2035172;86;21129;-69
2022/08/03 04:16:04;;;;;;;8.53;6.95;;;;;;;16.52;76.45;100425.69;2038329;86;21478;-69
2022/08/03 04:19:17;;;;;;;7.10;6.47;;;;;;;16.67;75.97;100430.09;2034152;86;21031;-69
2022/08/03 04:22:23;;;;;;;11.20;8.10;;;;;;;16.67;75.50;100427.41;2032688;86;21109;-69
2022/08/03 04:25:29;;;;;;;10.45;9.18;;;;;;;16.64;75.42;100425.12;2048418;85;21065;-69
2022/08/03 04:28:33;;;;;;;16.37;14.63;;;;;;;16.63;75.27;100432.86;2050316;85;21596;-70
2022/08/03 04:31:36;;;;;;;15.32;13.00;;;;;;;16.55;75.28;100433.33;2067190;85;21054;-69
2022/08/03 04:34:37;;;;;;;16.70;13.22;;;;;;;16.53;75.35;100431.38;2026002;86;21035;-69
2022/08/03 04:37:48;;;;;;;24.00;16.12;;;;;;;16.55;75.38;100431.17;2066917;85;21041;-69
2022/08/03 04:40:51;;;;;;;20.32;18.07;;;;;;;16.56;75.38;100440.87;2050529;85;21128;-69
2022/08/03 04:43:57;;;;;;;23.18;17.12;;;;;;;16.56;75.40;100440.87;2062701;84;21077;-69
2022/08/03 04:46:59;;;;;;;21.02;16.40;;;;;;;16.56;75.37;100433.66;2065049;85;21544;-69
2022/08/03 04:50:03;;;;;;;18.85;15.80;;;;;;;16.62;75.54;100442.76;2042381;86;21099;-69
2022/08/03 04:53:08;;;;;;;19.30;15.72;;;;;;;16.69;75.59;100436.91;2042151;86;21034;-72
2022/08/03 04:56:10;;;;;;;17.50;13.18;;;;;;;16.75;75.50;100433.94;2042977;86;21028;-72
2022/08/03 04:59:12;;;;;;;18.75;16.93;;;;;;;16.73;75.43;100433.34;2033954;86;21049;-73
2022/08/03 05:02:13;;;;;;;19.12;17.15;;;;;;;16.76;75.60;100433.78;2073481;84;21048;-74
2022/08/03 05:05:14;;;;;;;17.02;15.23;;;;;;;16.82;75.63;100428.14;2076869;83;21033;-74
2022/08/03 05:08:15;;;;;;;16.02;14.43;;;;;;;16.89;75.77;100427.64;2072246;84;21073;-72
2022/08/03 05:11:17;;;;;;;14.53;13.22;;;;;;;17.01;75.80;100433.27;2075468;84;21023;-72
2022/08/03 05:14:18;;;;;;;16.37;12.47;;;;;;;17.08;75.85;100430.60;2073924;84;20986;-72
2022/08/03 05:17:19;;;;;;;11.97;10.80;;;;;;;17.27;75.89;100430.35;2071295;84;21100;-72
2022/08/03 05:20:20;;;;;;;12.30;10.95;;;;;;;17.36;75.62;100424.58;2070711;84;21097;-72
2022/08/03 05:23:21;;;;;;;18.55;10.93;;;;;;;17.42;75.54;100432.33;2073339;83;21095;-73
2022/08/03 05:26:22;;;;;;;14.43;9.65;;;;;;;17.60;75.63;100428.55;2087386;83;21471;-71
2022/08/03 05:29:23;;;;;;;10.85;9.85;;;;;;;17.99;75.75;100425.59;2117798;82;21667;-69
2022/08/03 05:32:24;;;;;;;12.03;9.85;;;;;;;18.74;75.80;100428.73;2118937;82;21012;-70
2022/08/03 05:35:27;;;;;;;9.88;8.78;;;;;;;19.67;75.14;100429.57;2116736;82;21496;-69
2022/08/03 05:38:28;;;;;;;9.58;8.55;;;;;;;20.51;74.29;100427.86;2119124;82;21048;-71
2022/08/03 05:41:29;;;;;;;13.80;9.25;;;;;;;21.21;73.08;100425.55;2119421;83;21080;-69
2022/08/03 05:44:30;;;;;;;10.53;8.15;;;;;;;21.76;71.38;100425.88;2125579;82;21053;-69
2022/08/03 05:47:32;;;;;;;9.65;7.65;;;;;;;22.09;70.11;100430.72;2117720;82;21096;-69
2022/08/03 05:50:34;;;;;;;8.08;7.28;;;;;;;22.58;69.22;100431.80;2123658;82;20971;-69
2022/08/03 05:53:37;;;;;;;9.00;7.47;;;;;;;23.00;67.86;100437.02;2100775;82;21051;-69
2022/08/03 05:56:39;;;;;;;11.93;7.10;;;;;;;22.89;66.82;100437.84;2101595;82;21001;-70
2022/08/03 05:59:40;;;;;;;8.33;7.30;;;;;;;22.82;66.04;100440.16;2117380;82;21046;-69
2022/08/03 06:02:42;;;;;;;9.40;7.60;;;;;;;22.75;65.87;100439.99;2119487;82;20989;-70
2022/08/03 06:05:43;;;;;;;10.15;6.50;;;;;;;22.89;65.54;100444.61;2118985;82;21585;-71
2022/08/03 06:08:45;;;;;;;8.48;6.90;;;;;;;23.01;65.51;100439.48;2114599;82;21029;-69
2022/08/03 06:11:46;;;;;;;7.87;6.78;;;;;;;23.24;65.22;100434.50;2115659;82;21051;-69
2022/08/03 06:14:46;;;;;;;9.25;6.37;;;;;;;23.29;63.80;100435.67;2118910;82;20980;-69
2022/08/03 06:17:49;;;;;;;7.12;6.42;;;;;;;23.30;63.63;100440.83;2117353;82;21084;-69
2022/08/03 06:20:54;;;;;;;10.63;6.47;;;;;;;23.54;62.53;100441.55;2114826;82;21068;-69
2022/08/03 06:23:55;;;;;;;9.88;6.47;;;;;;;23.90;63.27;100446.20;2119556;82;20965;-70
2022/08/03 06:26:57;;;;;;;5.92;5.37;;;;;;;24.64;63.28;100443.75;2120040;82;20985;-70
2022/08/03 06:29:58;;;;;;;6.05;5.45;;;;;;;25.06;60.67;100445.36;2065488;85;20983;-69
2022/08/03 06:32:59;;;;;;;9.13;5.37;;;;;;;25.35;60.17;100444.59;2118174;82;21102;-70
2022/08/03 06:36:00;;;;;;;6.28;5.62;;;;;;;25.27;58.96;100447.23;2071755;84;21085;-71
2022/08/03 06:39:03;;;;;;;5.53;5.00;;;;;;;25.52;56.01;100455.90;2073183;84;21211;-70
2022/08/03 06:42:04;;;;;;;7.10;4.87;;;;;;;25.34;56.93;100452.48;2076855;84;22308;-70
2022/08/03 06:45:08;;;;;;;6.95;5.47;;;;;;;25.53;57.48;100452.09;2078401;84;22112;-69
2022/08/03 06:48:11;;;;;;;9.23;4.78;;;;;;;25.91;57.11;100448.38;2074125;84;21041;-69
2022/08/03 06:51:13;;;;;;;8.13;4.75;;;;;;;26.19;54.97;100447.21;2072985;84;21014;-69
2022/08/03 06:54:14;;;;;;;6.30;5.00;;;;;;;26.11;54.46;100447.70;2073182;84;21040;-71
2022/08/03 06:57:17;;;;;;;7.53;4.90;;;;;;;26.29;54.43;100447.80;2072465;84;21077;-70
2022/08/03 07:00:18;;;;;;;7.25;4.85;;;;;;;26.42;54.33;100445.98;2075371;84;21065;-70
2022/08/03 07:03:19;;;;;;;5.97;4.92;;;;;;;26.90;53.28;100449.48;2072446;84;21484;-70
2022/08/03 07:06:20;;;;;;;9.33;4.58;;;;;;;26.81;52.08;100450.54;2071519;84;20994;-70
2022/08/03 07:09:21;;;;;;;6.35;4.78;;;;;;;26.71;51.52;100446.95;2075913;84;21529;-72
2022/08/03 07:12:22;;;;;;;6.85;4.50;;;;;;;26.68;51.11;100446.94;2074491;84;20970;-70
2022/08/03 07:15:25;;;;;;;6.65;4.50;;;;;;;26.48;51.77;100452.27;2073699;84;21022;-70
2022/08/03 07:18:26;;;;;;;5.37;4.80;;;;;;;26.57;52.17;100450.16;2074608;84;21843;-70
2022/08/03 07:21:27;;;;;;;4.90;4.40;;;;;;;26.83;52.28;100447.53;2075304;84;20982;-72
2022/08/03 07:24:28;;;;;;;6.60;4.75;;;;;;;27.13;51.74;100443.28;2073873;83;21044;-71
2022/08/03 07:27:30;;;;;;;8.93;5.30;;;;;;;27.34;51.45;100441.44;2078670;83;21595;-71
2022/08/03 07:30:31;;;;;;;6.20;4.78;;;;;;;27.36;50.97;100441.44;2078883;83;21057;-71
2022/08/03 07:33:32;;;;;;;5.17;4.67;;;;;;;27.38;50.88;100443.36;2077723;83;21094;-71
2022/08/03 07:36:33;;;;;;;6.65;4.75;;;;;;;27.49;51.15;100445.00;2079305;83;21043;-72
2022/08/03 07:39:34;;;;;;;5.42;4.30;;;;;;;27.81;50.79;100443.94;2080559;83;21065;-71
2022/08/03 07:42:35;;;;;;;8.28;4.35;;;;;;;27.97;49.42;100441.22;2077375;84;21124;-72
2022/08/03 07:45:36;;;;;;;9.75;4.62;;;;;;;28.10;49.94;100442.84;2077706;83;21153;-71
2022/08/03 07:48:37;;;;;;;6.37;4.22;;;;;;;28.25;49.06;100443.34;2074720;83;21108;-71
2022/08/03 07:51:39;;;;;;;5.47;4.87;;;;;;;28.01;48.62;100451.28;2080138;83;21041;-71
2022/08/03 07:54:40;;;;;;;6.33;4.15;;;;;;;28.18;48.27;100444.72;2040898;84;21075;-72
2022/08/03 07:57:41;;;;;;;7.22;4.30;;;;;;;28.22;48.92;100441.72;2078853;83;21029;-71
2022/08/03 08:00:43;;;;;;;4.22;3.83;;;;;;;28.38;47.86;100443.30;2081417;84;21079;-71
2022/08/03 08:03:48;;;;;;;4.95;3.92;;;;;;;28.68;48.12;100447.05;2075536;84;22314;-72
2022/08/03 08:06:50;;;;;;;7.03;3.90;;;;;;;28.79;45.53;100446.72;2079116;84;21549;-73
2022/08/03 08:09:51;;;;;;;5.05;3.98;;;;;;;28.82;45.91;100439.89;2079169;83;21086;-72
2022/08/03 08:12:55;;;;;;;9.50;4.53;;;;;;;29.08;46.36;100443.87;2081369;84;21078;-71
2022/08/03 08:15:57;;;;;;;4.80;3.50;;;;;;;28.92;45.63;100441.22;2082305;84;21081;-71
2022/08/03 08:18:58;;;;;;;6.47;3.60;;;;;;;28.51;45.44;100445.47;2079162;84;20975;-73
2022/08/03 08:21:59;;;;;;;7.83;4.12;;;;;;;28.43;45.63;100441.14;2086637;83;20986;-71
2022/08/03 08:25:00;;;;;;;5.78;3.65;;;;;;;28.68;46.29;100441.59;2082690;83;21532;-73
2022/08/03 08:28:02;;;;;;;4.15;3.75;;;;;;;28.97;44.78;100441.72;2077054;84;21089;-71
2022/08/03 08:31:03;;;;;;;7.42;3.62;;;;;;;29.07;44.79;100447.17;2068611;85;21534;-71
2022/08/03 08:34:06;;;;;;;3.27;3.00;;;;;;;29.62;42.82;100422.44;2073286;85;21551;-71
2022/08/03 08:37:07;;;;;;;3.72;3.22;;;;;;;29.73;43.63;100422.65;2068918;85;21045;-72
2022/08/03 08:40:09;;;;;;;3.60;2.80;;;;;;;29.73;43.63;100422.65;2067161;85;21001;-73
2022/08/03 08:43:13;;;;;;;3.08;2.77;;;;;;;30.07;42.14;100446.40;2032935;86;21065;-71
2022/08/03 08:46:15;;;;;;;5.00;2.92;;;;;;;29.72;41.19;100423.77;2035315;86;21041;-71
2022/08/03 08:49:20;;;;;;;4.55;2.98;;;;;;;29.82;41.40;100441.45;2086714;84;21100;-71
2022/08/03 08:52:26;;;;;;;4.22;3.02;;;;;;;29.92;41.78;100442.71;2038419;85;21049;-72
2022/08/03 08:55:28;;;;;;;4.53;2.72;;;;;;;30.08;39.81;100431.08;2041364;86;21048;-71
2022/08/03 08:58:34;;;;;;;3.37;2.77;;;;;;;30.09;40.59;100429.16;2044158;85;21022;-73
2022/08/03 09:01:35;;;;;;;4.85;2.50;;;;;;;30.23;40.22;100432.86;2068932;85;21017;-71
2022/08/03 09:04:38;;;;;;;4.33;2.70;;;;;;;29.82;37.75;100435.98;2033190;86;21023;-71
2022/08/03 09:07:41;;;;;;;5.03;2.90;;;;;;;29.67;39.01;100442.94;2030117;87;21065;-71
2022/08/03 09:10:42;;;;;;;5.42;2.70;;;;;;;29.78;39.01;100430.81;2033835;85;21559;-71
2022/08/03 09:13:44;;;;;;;4.47;2.65;;;;;;;29.90;39.08;100437.27;2040296;85;21009;-71
2022/08/03 09:17:02;;;;;;;4.58;3.12;;;;;;;29.82;38.81;100440.09;2037966;85;21034;-72
2022/08/03 09:20:10;;;;;;;3.58;2.60;;;;;;;29.77;40.05;100438.77;2083196;84;21022;-71
2022/08/03 09:23:09;;;;;;;6.58;2.77;;;;;;;29.88;40.17;100434.83;2082397;84;21109;-71
2022/08/03 09:26:11;;;;;;;4.78;3.12;;;;;;;30.06;39.44;100427.81;2067097;85;21097;-72
2022/08/03 09:29:12;;;;;;;3.00;2.77;;;;;;;30.17;38.20;100431.26;2080576;83;21588;-74
2022/08/03 09:32:13;;;;;;;3.12;2.80;;;;;;;29.93;38.28;100431.22;2089059;83;21037;-71
2022/08/03 09:35:30;;;;;;;3.20;2.60;;;;;;;29.97;39.10;100420.53;2083070;83;21378;-72
2022/08/03 09:38:31;;;;;;;3.52;2.98;;;;;;;30.08;38.62;100419.33;2079973;83;20990;-72
2022/08/03 09:41:33;;;;;;;4.03;2.42;;;;;;;30.29;37.98;100412.53;2083272;83;21044;-72
2022/08/03 09:44:51;;;;;;;4.15;2.92;;;;;;;30.41;39.15;100420.89;2076759;83;21107;-72
2022/08/03 09:47:52;;;;;;;2.67;2.47;;;;;;;30.67;40.08;100420.85;2079465;84;20990;-72
2022/08/03 09:50:57;;;;;;;5.62;3.12;;;;;;;31.00;38.91;100408.11;2080844;83;21492;-72
2022/08/03 09:54:02;;;;;;;4.30;2.72;;;;;;;31.20;39.03;100411.09;2083472;84;21115;-71
2022/08/03 09:57:02;;;;;;;8.50;2.80;;;;;;;31.49;39.24;100416.97;2079740;83;21132;-71
2022/08/03 10:00:13;;;;;;;2.92;2.70;;;;;;;31.26;37.35;100409.90;2082083;84;20947;-72
2022/08/03 10:03:14;;;;;;;3.75;2.37;;;;;;;31.10;37.00;100406.32;2079249;84;20998;-72
2022/08/03 10:06:18;;;;;;;2.95;2.60;;;;;;;31.23;38.78;100406.39;2080244;84;21076;-73
2022/08/03 10:09:20;;;;;;;3.65;2.72;;;;;;;31.67;37.70;100407.06;2081783;83;21072;-71
2022/08/03 10:12:21;;;;;;;4.05;2.50;;;;;;;31.65;36.62;100404.64;2082383;83;21053;-71
2022/08/03 10:15:23;;;;;;;3.92;2.80;;;;;;;31.56;36.99;100405.05;2086279;84;21151;-72
2022/08/03 10:18:24;;;;;;;8.38;2.50;;;;;;;31.60;35.52;100399.23;2079913;83;21024;-71
2022/08/03 10:21:30;;;;;;;4.72;2.87;;;;;;;31.73;37.07;100402.30;2060788;83;20994;-72
2022/08/03 10:24:37;;;;;;;3.92;2.55;;;;;;;31.99;36.94;100399.39;2079178;84;20999;-71
2022/08/03 10:27:41;;;;;;;6.37;2.90;;;;;;;31.92;36.39;100398.97;2077911;84;21092;-72
2022/08/03 10:30:50;;;;;;;3.00;2.70;;;;;;;32.01;36.60;100394.40;2079380;83;21089;-72
2022/08/03 10:33:53;;;;;;;4.35;2.55;;;;;;;32.09;36.37;100388.77;2080436;83;21068;-72
2022/08/03 10:36:58;;;;;;;3.67;2.80;;;;;;;31.55;34.98;100389.72;2078638;84;20982;-71
2022/08/03 10:40:00;;;;;;;3.42;2.60;;;;;;;31.13;36.13;100383.23;2077424;83;21018;-71
2022/08/03 10:43:12;;;;;;;3.55;2.62;;;;;;;30.99;35.95;100387.84;2082427;84;21098;-71
2022/08/03 10:46:15;;;;;;;9.15;3.08;;;;;;;31.07;35.34;100383.06;2082004;83;21116;-72
2022/08/03 10:49:20;;;;;;;4.17;2.30;;;;;;;31.32;36.39;100383.22;2085262;83;21147;-72
2022/08/03 10:52:21;;;;;;;2.60;2.40;;;;;;;31.45;35.62;100383.03;2079182;84;21001;-72
2022/08/03 10:58:58;;;;;;;5.65;2.45;;;;;;;31.15;35.58;100381.59;2080202;84;21049;-71
2022/08/03 11:01:59;;;;;;;5.62;2.42;;;;;;;31.12;35.44;100381.62;2087073;84;21069;-72
2022/08/03 11:05:30;;;;;;;2.83;2.50;;;;;;;31.22;36.16;100378.70;2081450;83;21060;-72
2022/08/03 11:08:36;;;;;;;3.50;2.62;;;;;;;31.50;37.34;100377.46;2080108;83;21516;-72
2022/08/03 11:11:39;;;;;;;4.33;2.30;;;;;;;31.92;36.29;100377.02;2077580;84;20966;-74
2022/08/03 11:14:48;;;;;;;3.65;2.10;;;;;;;32.13;36.86;100375.52;2084739;83;20992;-71
2022/08/03 11:18:13;;;;;;;4.83;2.17;;;;;;;32.31;35.76;100372.41;2080649;83;21040;-72
2022/08/03 11:21:11;;;;;;;4.65;2.60;;;;;;;32.43;35.77;100373.81;2076708;84;21037;-71
2022/08/03 11:24:46;;;;;;;3.17;1.98;;;;;;;32.56;35.17;100368.34;2082490;83;21108;-73
2022/08/03 11:27:43;;;;;;;2.98;2.08;;;;;;;32.62;34.50;100364.11;2081373;84;21575;-72
2022/08/03 11:30:45;;;;;;;4.15;2.00;;;;;;;32.80;34.65;100357.10;2081798;83;21093;-72
2022/08/03 11:34:10;;;;;;;2.80;2.05;;;;;;;32.87;34.49;100368.22;2079489;83;21590;-71
2022/08/03 11:37:23;;;;;;;3.02;2.40;;;;;;;33.13;34.71;100365.14;2079346;83;21109;-71
2022/08/03 11:40:47;;;;;;;2.35;2.15;;;;;;;33.26;33.79;100364.27;2081158;84;21045;-72
2022/08/03 11:43:49;;;;;;;6.42;2.00;;;;;;;33.09;32.51;100364.72;2081631;83;21583;-71
2022/08/03 11:46:51;;;;;;;2.22;2.05;;;;;;;32.74;32.73;100363.81;2084416;83;21042;-72
2022/08/03 11:49:57;;;;;;;2.22;2.05;;;;;;;32.45;32.98;100357.28;2082269;84;21038;-72
2022/08/03 11:52:58;;;;;;;2.80;2.08;;;;;;;32.24;33.89;100354.70;2079444;84;21100;-71
2022/08/03 11:56:02;;;;;;;2.33;2.12;;;;;;;32.29;34.09;100352.67;2078552;83;21050;-72
2022/08/03 11:59:04;;;;;;;4.12;2.00;;;;;;;32.55;34.15;100357.64;2059170;84;20962;-71
2022/08/03 12:02:11;;;;;;;3.22;1.52;;;;;;;32.68;34.10;100349.14;2059230;84;21008;-72
2022/08/03 12:05:12;;;;;;;4.70;1.80;;;;;;;32.73;33.18;100342.97;2080477;84;21093;-72
2022/08/03 12:08:17;;;;;;;2.40;1.90;;;;;;;32.88;32.79;100345.91;2082541;83;21104;-72
2022/08/03 12:11:18;;;;;;;1.90;1.80;;;;;;;33.08;32.09;100338.34;2085068;83;21631;-72
2022/08/03 12:14:20;;;;;;;1.90;1.70;;;;;;;33.23;31.58;100346.22;2081923;83;21045;-71
2022/08/03 12:17:21;;;;;;;1.70;1.60;;;;;;;33.09;32.04;100338.61;2079516;83;21084;-71
2022/08/03 12:20:26;;;;;;;2.22;1.90;;;;;;;33.09;32.20;100339.41;2086111;83;20993;-72
2022/08/03 12:23:27;;;;;;;3.30;2.22;;;;;;;33.08;31.56;100335.59;2079991;83;21457;-72
2022/08/03 12:26:32;;;;;;;4.03;2.20;;;;;;;32.73;31.78;100334.72;2078968;84;21085;-71
2022/08/03 12:29:34;;;;;;;2.58;2.05;;;;;;;32.67;32.06;100325.55;2079142;83;21192;-71
2022/08/03 12:32:38;;;;;;;3.50;2.30;;;;;;;32.52;32.25;100330.27;2063232;84;21026;-72
2022/08/03 12:35:39;;;;;;;2.08;1.90;;;;;;;32.32;31.34;100329.28;2082637;83;21049;-72
2022/08/03 12:38:41;;;;;;;3.17;2.25;;;;;;;32.13;31.65;100330.80;2060619;84;20997;-71
2022/08/03 12:41:42;;;;;;;3.37;2.00;;;;;;;32.03;31.59;100331.80;2077403;84;21080;-71
2022/08/03 12:44:45;;;;;;;2.12;1.80;;;;;;;31.85;32.31;100325.27;2085180;84;21603;-72
2022/08/03 12:48:01;;;;;;;1.82;1.70;;;;;;;31.88;31.44;100326.59;2061688;84;21006;-71
2022/08/03 12:51:10;;;;;;;3.58;1.98;;;;;;;31.93;31.05;100319.64;2086555;83;21009;-71
2022/08/03 12:54:26;;;;;;;5.22;1.87;;;;;;;31.86;30.62;100317.85;2081678;84;21092;-71
2022/08/03 12:57:41;;;;;;;2.60;1.80;;;;;;;31.65;31.42;100316.88;2081981;83;21513;-71
2022/08/03 13:00:55;;;;;;;2.02;1.77;;;;;;;31.92;31.77;100321.58;2078727;84;21061;-72
2022/08/03 13:03:56;;;;;;;2.45;1.87;;;;;;;32.07;31.74;100309.50;2083446;83;21461;-71
2022/08/03 13:07:06;;;;;;;5.00;2.50;;;;;;;32.26;32.29;100311.30;2084655;84;21057;-72
2022/08/03 13:10:09;;;;;;;2.22;1.80;;;;;;;32.29;32.23;100312.06;2079792;83;21001;-74
2022/08/03 13:13:11;;;;;;;2.40;1.70;;;;;;;32.18;31.90;100311.45;2077025;83;21714;-72
2022/08/03 13:16:12;;;;;;;4.72;1.65;;;;;;;32.01;31.41;100310.70;2080029;83;21002;-71
2022/08/03 13:19:13;;;;;;;3.02;1.85;;;;;;;31.98;31.70;100312.69;2081153;83;21006;-71
2022/08/03 13:22:24;;;;;;;1.95;1.65;;;;;;;31.93;31.10;100313.62;2082655;83;21052;-71
2022/08/03 13:25:25;;;;;;;4.42;1.92;;;;;;;31.74;31.16;100317.55;2079687;84;21555;-71
2022/08/03 13:28:27;;;;;;;3.47;1.90;;;;;;;31.63;30.83;100310.06;2079697;83;21128;-71
2022/08/03 13:31:28;;;;;;;1.95;1.82;;;;;;;31.44;31.16;100311.50;2072159;84;21585;-73
2022/08/03 13:34:29;;;;;;;1.90;1.80;;;;;;;31.27;31.20;100313.41;2071989;85;21397;-70
2022/08/03 13:37:31;;;;;;;4.00;2.10;;;;;;;31.18;31.67;100306.99;2071452;84;20998;-72
2022/08/03 13:40:33;;;;;;;1.87;1.77;;;;;;;31.07;30.97;100311.83;2072166;85;21085;-71
2022/08/03 13:43:34;;;;;;;2.10;1.90;;;;;;;30.98;30.92;100317.73;2071312;85;21045;-71
2022/08/03 13:46:36;;;;;;;2.12;1.82;;;;;;;30.79;31.25;100301.28;2070913;85;21636;-70
2022/08/03 13:49:37;;;;;;;3.15;2.17;;;;;;;30.76;32.14;100295.84;2068179;85;21202;-71
2022/08/03 13:52:38;;;;;;;6.03;1.98;;;;;;;30.85;32.11;100296.56;2073204;85;21529;-71
2022/08/03 13:55:39;;;;;;;3.80;2.10;;;;;;;30.97;32.50;100290.90;2070588;85;22495;-72
2022/08/03 13:58:40;;;;;;;2.22;1.80;;;;;;;31.08;32.08;100294.27;2057950;84;20982;-71
2022/08/03 14:01:42;;;;;;;2.05;1.95;;;;;;;31.13;31.73;100295.55;2052646;85;21058;-71
2022/08/03 14:04:43;;;;;;;4.62;2.20;;;;;;;31.13;31.57;100291.44;2118364;83;20981;-72
2022/08/03 14:07:44;;;;;;;3.17;2.10;;;;;;;31.12;31.34;100295.87;2118747;82;21020;-72
2022/08/03 14:10:45;;;;;;;2.62;2.33;;;;;;;31.09;31.72;100288.25;2101228;82;21025;-71
2022/08/03 14:13:46;;;;;;;4.12;2.00;;;;;;;31.10;32.72;100283.83;2104194;83;21030;-72
2022/08/03 14:16:47;;;;;;;2.42;1.55;;;;;;;31.12;31.74;100286.27;2117763;82;21029;-71
2022/08/03 14:19:48;;;;;;;1.98;1.85;;;;;;;31.13;32.21;100283.22;2121276;82;21041;-71
2022/08/03 14:22:50;;;;;;;3.10;1.85;;;;;;;31.25;32.55;100281.37;2116558;82;20993;-73
2022/08/03 14:25:51;;;;;;;2.17;1.98;;;;;;;31.23;32.27;100276.77;2118373;82;20965;-72